sensor_id;sensor_type;location;lat;lon;timestamp;P1;P2;P0
45440;PMS5003;31189;38.790;-77.084;2024-02-23T00:01:32;13;7;
45440;PMS5003;31189;38.790;-77.084;2024-02-23T00:03:58;11;6;
45440;PMS5003;31189;38.790;-77.084;2024-02-23T00:06:24;22;7;
45440;PMS5003;31189;38.790;-77.084;2024-02-23T00:08:49;10;9;
45440;PMS5003;31189;38.790;-77.084;2024-02-23T00:11:15;9;7;
45440;PMS5003;31189;38.790;-77.084;2024-02-23T00:13:40;11;8;
45440;PMS5003;31189;38.790;-77.084;2024-02-23T00:16:06;22;7;
45440;PMS5003;31189;38.790;-77.084;2024-02-23T00:18:31;4;4;
45440;PMS5003;31189;38.790;-77.084;2024-02-23T00:20:57;12;7;
45440;PMS5003;31189;38.790;-77.084;2024-02-23T00:23:22;10;9;
45440;PMS5003;31189;38.790;-77.084;2024-02-23T00:25:48;8;8;
45440;PMS5003;31189;38.790;-77.084;2024-02-23T00:28:14;9;7;
45440;PMS5003;31189;38.790;-77.084;2024-02-23T00:30:39;23;8;
45440;PMS5003;31189;38.790;-77.084;2024-02-23T00:33:05;5;5;
45440;PMS5003;31189;38.790;-77.084;2024-02-23T00:35:30;10;7;
45440;PMS5003;31189;38.790;-77.084;2024-02-23T00:37:56;8;6;
45440;PMS5003;31189;38.790;-77.084;2024-02-23T00:40:22;10;8;
45440;PMS5003;31189;38.790;-77.084;2024-02-23T00:42:47;10;7;
45440;PMS5003;31189;38.790;-77.084;2024-02-23T00:45:13;10;9;
45440;PMS5003;31189;38.790;-77.084;2024-02-23T00:47:38;10;7;
45440;PMS5003;31189;38.790;-77.084;2024-02-23T00:50:04;7;7;
45440;PMS5003;31189;38.790;-77.084;2024-02-23T00:52:30;10;9;
45440;PMS5003;31189;38.790;-77.084;2024-02-23T00:54:55;11;11;
45440;PMS5003;31189;38.790;-77.084;2024-02-23T00:57:21;9;7;
45440;PMS5003;31189;38.790;-77.084;2024-02-23T00:59:47;9;6;
45440;PMS5003;31189;38.790;-77.084;2024-02-23T01:02:12;11;8;
45440;PMS5003;31189;38.790;-77.084;2024-02-23T01:04:38;12;8;
45440;PMS5003;31189;38.790;-77.084;2024-02-23T01:07:03;10;9;
45440;PMS5003;31189;38.790;-77.084;2024-02-23T01:09:29;9;8;
45440;PMS5003;31189;38.790;-77.084;2024-02-23T01:11:55;9;6;
45440;PMS5003;31189;38.790;-77.084;2024-02-23T01:14:20;10;6;
45440;PMS5003;31189;38.790;-77.084;2024-02-23T01:16:46;14;8;
45440;PMS5003;31189;38.790;-77.084;2024-02-23T01:19:11;9;6;
45440;PMS5003;31189;38.790;-77.084;2024-02-23T01:21:37;10;7;
45440;PMS5003;31189;38.790;-77.084;2024-02-23T01:24:03;12;8;
45440;PMS5003;31189;38.790;-77.084;2024-02-23T01:26:28;8;8;
45440;PMS5003;31189;38.790;-77.084;2024-02-23T01:28:54;7;6;
45440;PMS5003;31189;38.790;-77.084;2024-02-23T01:31:19;12;7;
45440;PMS5003;31189;38.790;-77.084;2024-02-23T01:33:45;12;9;
45440;PMS5003;31189;38.790;-77.084;2024-02-23T01:36:11;11;7;
45440;PMS5003;31189;38.790;-77.084;2024-02-23T01:38:36;12;5;
45440;PMS5003;31189;38.790;-77.084;2024-02-23T01:41:02;8;6;
45440;PMS5003;31189;38.790;-77.084;2024-02-23T01:43:28;9;7;
45440;PMS5003;31189;38.790;-77.084;2024-02-23T01:45:53;7;4;
45440;PMS5003;31189;38.790;-77.084;2024-02-23T01:48:19;11;7;
45440;PMS5003;31189;38.790;-77.084;2024-02-23T01:50:44;8;8;
45440;PMS5003;31189;38.790;-77.084;2024-02-23T01:53:10;11;8;
45440;PMS5003;31189;38.790;-77.084;2024-02-23T01:55:36;7;6;
45440;PMS5003;31189;38.790;-77.084;2024-02-23T01:58:01;12;7;
45440;PMS5003;31189;38.790;-77.084;2024-02-23T02:00:27;14;7;
45440;PMS5003;31189;38.790;-77.084;2024-02-23T02:02:52;12;8;
45440;PMS5003;31189;38.790;-77.084;2024-02-23T02:05:18;10;8;
45440;PMS5003;31189;38.790;-77.084;2024-02-23T02:07:44;6;4;
45440;PMS5003;31189;38.790;-77.084;2024-02-23T02:10:09;16;9;
45440;PMS5003;31189;38.790;-77.084;2024-02-23T02:12:34;10;8;
45440;PMS5003;31189;38.790;-77.084;2024-02-23T02:15:00;8;8;
45440;PMS5003;31189;38.790;-77.084;2024-02-23T02:17:25;11;7;
45440;PMS5003;31189;38.790;-77.084;2024-02-23T02:19:51;16;8;
45440;PMS5003;31189;38.790;-77.084;2024-02-23T02:22:16;8;7;
45440;PMS5003;31189;38.790;-77.084;2024-02-23T02:24:42;9;7;
45440;PMS5003;31189;38.790;-77.084;2024-02-23T02:27:08;12;8;
45440;PMS5003;31189;38.790;-77.084;2024-02-23T02:29:34;11;8;
45440;PMS5003;31189;38.790;-77.084;2024-02-23T02:31:59;18;8;
45440;PMS5003;31189;38.790;-77.084;2024-02-23T02:34:24;11;7;
45440;PMS5003;31189;38.790;-77.084;2024-02-23T02:36:50;11;9;
45440;PMS5003;31189;38.790;-77.084;2024-02-23T02:39:16;7;7;
45440;PMS5003;31189;38.790;-77.084;2024-02-23T02:41:41;11;9;
45440;PMS5003;31189;38.790;-77.084;2024-02-23T02:44:07;14;8;
45440;PMS5003;31189;38.790;-77.084;2024-02-23T02:46:32;9;7;
45440;PMS5003;31189;38.790;-77.084;2024-02-23T02:48:58;17;8;
45440;PMS5003;31189;38.790;-77.084;2024-02-23T02:51:23;8;6;
45440;PMS5003;31189;38.790;-77.084;2024-02-23T02:53:49;15;9;
45440;PMS5003;31189;38.790;-77.084;2024-02-23T02:56:14;11;8;
45440;PMS5003;31189;38.790;-77.084;2024-02-23T02:58:40;10;9;
45440;PMS5003;31189;38.790;-77.084;2024-02-23T03:01:06;13;7;
45440;PMS5003;31189;38.790;-77.084;2024-02-23T03:03:31;11;6;
45440;PMS5003;31189;38.790;-77.084;2024-02-23T03:05:57;12;8;
45440;PMS5003;31189;38.790;-77.084;2024-02-23T03:08:22;12;11;
45440;PMS5003;31189;38.790;-77.084;2024-02-23T03:10:48;13;9;
45440;PMS5003;31189;38.790;-77.084;2024-02-23T03:13:14;10;9;
45440;PMS5003;31189;38.790;-77.084;2024-02-23T03:15:39;12;9;
45440;PMS5003;31189;38.790;-77.084;2024-02-23T03:18:05;10;7;
45440;PMS5003;31189;38.790;-77.084;2024-02-23T03:20:31;10;9;
45440;PMS5003;31189;38.790;-77.084;2024-02-23T03:22:56;12;10;
45440;PMS5003;31189;38.790;-77.084;2024-02-23T03:25:22;22;13;
45440;PMS5003;31189;38.790;-77.084;2024-02-23T03:27:47;13;10;
45440;PMS5003;31189;38.790;-77.084;2024-02-23T03:30:13;31;22;
45440;PMS5003;31189;38.790;-77.084;2024-02-23T03:32:38;20;16;
45440;PMS5003;31189;38.790;-77.084;2024-02-23T03:35:04;28;15;
45440;PMS5003;31189;38.790;-77.084;2024-02-23T03:37:29;29;22;
45440;PMS5003;31189;38.790;-77.084;2024-02-23T03:39:54;20;19;
45440;PMS5003;31189;38.790;-77.084;2024-02-23T03:42:19;27;22;
45440;PMS5003;31189;38.790;-77.084;2024-02-23T03:44:45;22;20;
45440;PMS5003;31189;38.790;-77.084;2024-02-23T03:47:10;26;22;
45440;PMS5003;31189;38.790;-77.084;2024-02-23T03:49:35;20;17;
45440;PMS5003;31189;38.790;-77.084;2024-02-23T03:52:00;21;16;
45440;PMS5003;31189;38.790;-77.084;2024-02-23T03:54:26;26;19;
45440;PMS5003;31189;38.790;-77.084;2024-02-23T03:56:51;26;21;
45440;PMS5003;31189;38.790;-77.084;2024-02-23T03:59:16;24;18;
45440;PMS5003;31189;38.790;-77.084;2024-02-23T04:01:41;22;17;
45440;PMS5003;31189;38.790;-77.084;2024-02-23T04:04:07;21;17;
45440;PMS5003;31189;38.790;-77.084;2024-02-23T04:06:33;17;17;
45440;PMS5003;31189;38.790;-77.084;2024-02-23T04:08:58;24;18;
45440;PMS5003;31189;38.790;-77.084;2024-02-23T04:11:24;36;18;
45440;PMS5003;31189;38.790;-77.084;2024-02-23T04:13:49;19;15;
45440;PMS5003;31189;38.790;-77.084;2024-02-23T04:16:14;24;18;
45440;PMS5003;31189;38.790;-77.084;2024-02-23T04:18:40;23;18;
45440;PMS5003;31189;38.790;-77.084;2024-02-23T04:21:05;22;17;
45440;PMS5003;31189;38.790;-77.084;2024-02-23T04:23:31;24;19;
45440;PMS5003;31189;38.790;-77.084;2024-02-23T04:25:56;40;22;
45440;PMS5003;31189;38.790;-77.084;2024-02-23T04:28:22;22;19;
45440;PMS5003;31189;38.790;-77.084;2024-02-23T04:30:47;27;21;
45440;PMS5003;31189;38.790;-77.084;2024-02-23T04:33:12;22;20;
45440;PMS5003;31189;38.790;-77.084;2024-02-23T04:35:38;31;20;
45440;PMS5003;31189;38.790;-77.084;2024-02-23T04:38:03;22;19;
45440;PMS5003;31189;38.790;-77.084;2024-02-23T04:40:29;36;18;
45440;PMS5003;31189;38.790;-77.084;2024-02-23T04:42:54;24;18;
45440;PMS5003;31189;38.790;-77.084;2024-02-23T04:45:19;21;19;
45440;PMS5003;31189;38.790;-77.084;2024-02-23T04:47:45;17;15;
45440;PMS5003;31189;38.790;-77.084;2024-02-23T04:50:10;22;16;
45440;PMS5003;31189;38.790;-77.084;2024-02-23T04:52:35;21;17;
45440;PMS5003;31189;38.790;-77.084;2024-02-23T04:55:01;18;16;
45440;PMS5003;31189;38.790;-77.084;2024-02-23T04:57:26;22;19;
45440;PMS5003;31189;38.790;-77.084;2024-02-23T04:59:52;19;13;
45440;PMS5003;31189;38.790;-77.084;2024-02-23T05:02:17;24;11;
45440;PMS5003;31189;38.790;-77.084;2024-02-23T05:04:42;23;13;
45440;PMS5003;31189;38.790;-77.084;2024-02-23T05:07:07;21;13;
45440;PMS5003;31189;38.790;-77.084;2024-02-23T05:11:59;22;16;
45440;PMS5003;31189;38.790;-77.084;2024-02-23T05:14:24;20;15;
45440;PMS5003;31189;38.790;-77.084;2024-02-23T05:16:50;16;12;
45440;PMS5003;31189;38.790;-77.084;2024-02-23T05:19:15;13;12;
45440;PMS5003;31189;38.790;-77.084;2024-02-23T05:21:41;16;14;
45440;PMS5003;31189;38.790;-77.084;2024-02-23T05:24:06;22;18;
45440;PMS5003;31189;38.790;-77.084;2024-02-23T05:26:32;22;16;
45440;PMS5003;31189;38.790;-77.084;2024-02-23T05:28:58;27;20;
45440;PMS5003;31189;38.790;-77.084;2024-02-23T05:31:23;20;17;
45440;PMS5003;31189;38.790;-77.084;2024-02-23T05:33:48;23;19;
45440;PMS5003;31189;38.790;-77.084;2024-02-23T05:36:13;23;15;
45440;PMS5003;31189;38.790;-77.084;2024-02-23T05:38:39;18;15;
45440;PMS5003;31189;38.790;-77.084;2024-02-23T05:41:04;23;19;
45440;PMS5003;31189;38.790;-77.084;2024-02-23T05:43:30;20;17;
45440;PMS5003;31189;38.790;-77.084;2024-02-23T05:45:56;20;18;
45440;PMS5003;31189;38.790;-77.084;2024-02-23T05:48:21;21;17;
45440;PMS5003;31189;38.790;-77.084;2024-02-23T05:50:46;21;17;
45440;PMS5003;31189;38.790;-77.084;2024-02-23T05:53:12;18;16;
45440;PMS5003;31189;38.790;-77.084;2024-02-23T05:55:37;19;15;
45440;PMS5003;31189;38.790;-77.084;2024-02-23T05:58:02;29;13;
45440;PMS5003;31189;38.790;-77.084;2024-02-23T06:00:27;17;14;
45440;PMS5003;31189;38.790;-77.084;2024-02-23T06:02:53;17;13;
45440;PMS5003;31189;38.790;-77.084;2024-02-23T06:05:18;17;11;
45440;PMS5003;31189;38.790;-77.084;2024-02-23T06:07:44;17;14;
45440;PMS5003;31189;38.790;-77.084;2024-02-23T06:10:09;12;12;
45440;PMS5003;31189;38.790;-77.084;2024-02-23T06:12:35;21;12;
45440;PMS5003;31189;38.790;-77.084;2024-02-23T06:15:00;15;15;
45440;PMS5003;31189;38.790;-77.084;2024-02-23T06:17:26;18;16;
45440;PMS5003;31189;38.790;-77.084;2024-02-23T06:19:51;17;14;
45440;PMS5003;31189;38.790;-77.084;2024-02-23T06:22:17;24;13;
45440;PMS5003;31189;38.790;-77.084;2024-02-23T06:24:42;16;15;
45440;PMS5003;31189;38.790;-77.084;2024-02-23T06:27:07;15;11;
45440;PMS5003;31189;38.790;-77.084;2024-02-23T06:29:32;15;14;
45440;PMS5003;31189;38.790;-77.084;2024-02-23T06:31:58;12;10;
45440;PMS5003;31189;38.790;-77.084;2024-02-23T06:34:24;16;10;
45440;PMS5003;31189;38.790;-77.084;2024-02-23T06:36:49;12;12;
45440;PMS5003;31189;38.790;-77.084;2024-02-23T06:39:15;18;13;
45440;PMS5003;31189;38.790;-77.084;2024-02-23T06:41:40;16;13;
45440;PMS5003;31189;38.790;-77.084;2024-02-23T06:44:06;15;12;
45440;PMS5003;31189;38.790;-77.084;2024-02-23T06:46:32;16;14;
45440;PMS5003;31189;38.790;-77.084;2024-02-23T06:48:57;15;13;
45440;PMS5003;31189;38.790;-77.084;2024-02-23T06:51:23;16;16;
45440;PMS5003;31189;38.790;-77.084;2024-02-23T06:53:48;21;13;
45440;PMS5003;31189;38.790;-77.084;2024-02-23T06:56:14;18;15;
45440;PMS5003;31189;38.790;-77.084;2024-02-23T06:58:39;15;14;
45440;PMS5003;31189;38.790;-77.084;2024-02-23T07:01:05;17;14;
45440;PMS5003;31189;38.790;-77.084;2024-02-23T07:03:30;17;16;
45440;PMS5003;31189;38.790;-77.084;2024-02-23T07:05:56;17;16;
45440;PMS5003;31189;38.790;-77.084;2024-02-23T07:08:21;19;14;
45440;PMS5003;31189;38.790;-77.084;2024-02-23T07:10:46;21;15;
45440;PMS5003;31189;38.790;-77.084;2024-02-23T07:13:12;25;15;
45440;PMS5003;31189;38.790;-77.084;2024-02-23T07:15:37;18;14;
45440;PMS5003;31189;38.790;-77.084;2024-02-23T07:18:02;20;17;
45440;PMS5003;31189;38.790;-77.084;2024-02-23T07:20:27;21;15;
45440;PMS5003;31189;38.790;-77.084;2024-02-23T07:22:53;17;16;
45440;PMS5003;31189;38.790;-77.084;2024-02-23T07:25:18;17;15;
45440;PMS5003;31189;38.790;-77.084;2024-02-23T07:27:44;23;13;
45440;PMS5003;31189;38.790;-77.084;2024-02-23T07:30:10;14;12;
45440;PMS5003;31189;38.790;-77.084;2024-02-23T07:32:35;11;11;
45440;PMS5003;31189;38.790;-77.084;2024-02-23T07:35:01;28;14;
45440;PMS5003;31189;38.790;-77.084;2024-02-23T07:37:26;17;13;
45440;PMS5003;31189;38.790;-77.084;2024-02-23T07:39:52;15;12;
45440;PMS5003;31189;38.790;-77.084;2024-02-23T07:42:17;19;16;
45440;PMS5003;31189;38.790;-77.084;2024-02-23T07:44:42;13;13;
45440;PMS5003;31189;38.790;-77.084;2024-02-23T07:47:08;14;11;
45440;PMS5003;31189;38.790;-77.084;2024-02-23T07:49:34;19;17;
45440;PMS5003;31189;38.790;-77.084;2024-02-23T07:51:59;17;13;
45440;PMS5003;31189;38.790;-77.084;2024-02-23T07:54:25;14;13;
45440;PMS5003;31189;38.790;-77.084;2024-02-23T07:56:50;15;14;
45440;PMS5003;31189;38.790;-77.084;2024-02-23T07:59:16;18;15;
45440;PMS5003;31189;38.790;-77.084;2024-02-23T08:01:42;19;14;
45440;PMS5003;31189;38.790;-77.084;2024-02-23T08:04:07;15;14;
45440;PMS5003;31189;38.790;-77.084;2024-02-23T08:06:33;14;11;
45440;PMS5003;31189;38.790;-77.084;2024-02-23T08:08:58;17;15;
45440;PMS5003;31189;38.790;-77.084;2024-02-23T08:11:24;19;14;
45440;PMS5003;31189;38.790;-77.084;2024-02-23T08:13:50;23;12;
45440;PMS5003;31189;38.790;-77.084;2024-02-23T08:16:16;21;14;
45440;PMS5003;31189;38.790;-77.084;2024-02-23T08:18:41;18;15;
45440;PMS5003;31189;38.790;-77.084;2024-02-23T08:21:07;22;14;
45440;PMS5003;31189;38.790;-77.084;2024-02-23T08:23:32;17;14;
45440;PMS5003;31189;38.790;-77.084;2024-02-23T08:25:58;18;14;
45440;PMS5003;31189;38.790;-77.084;2024-02-23T08:28:24;22;18;
45440;PMS5003;31189;38.790;-77.084;2024-02-23T08:30:49;14;14;
45440;PMS5003;31189;38.790;-77.084;2024-02-23T08:33:14;28;17;
45440;PMS5003;31189;38.790;-77.084;2024-02-23T08:35:40;27;17;
45440;PMS5003;31189;38.790;-77.084;2024-02-23T08:38:05;15;13;
45440;PMS5003;31189;38.790;-77.084;2024-02-23T08:40:31;22;15;
45440;PMS5003;31189;38.790;-77.084;2024-02-23T08:42:57;17;15;
45440;PMS5003;31189;38.790;-77.084;2024-02-23T08:45:22;19;14;
45440;PMS5003;31189;38.790;-77.084;2024-02-23T08:47:48;25;14;
45440;PMS5003;31189;38.790;-77.084;2024-02-23T08:50:13;21;17;
45440;PMS5003;31189;38.790;-77.084;2024-02-23T08:52:39;17;16;
45440;PMS5003;31189;38.790;-77.084;2024-02-23T08:55:05;15;15;
45440;PMS5003;31189;38.790;-77.084;2024-02-23T08:57:30;16;13;
45440;PMS5003;31189;38.790;-77.084;2024-02-23T08:59:56;15;15;
45440;PMS5003;31189;38.790;-77.084;2024-02-23T09:02:21;22;17;
45440;PMS5003;31189;38.790;-77.084;2024-02-23T09:04:46;25;15;
45440;PMS5003;31189;38.790;-77.084;2024-02-23T09:07:12;24;19;
45440;PMS5003;31189;38.790;-77.084;2024-02-23T09:09:38;17;15;
45440;PMS5003;31189;38.790;-77.084;2024-02-23T09:12:03;15;12;
45440;PMS5003;31189;38.790;-77.084;2024-02-23T09:14:29;13;13;
45440;PMS5003;31189;38.790;-77.084;2024-02-23T09:16:54;21;15;
45440;PMS5003;31189;38.790;-77.084;2024-02-23T09:19:20;25;15;
45440;PMS5003;31189;38.790;-77.084;2024-02-23T09:21:46;15;15;
45440;PMS5003;31189;38.790;-77.084;2024-02-23T09:24:11;20;14;
45440;PMS5003;31189;38.790;-77.084;2024-02-23T09:26:36;20;14;
45440;PMS5003;31189;38.790;-77.084;2024-02-23T09:29:02;28;14;
45440;PMS5003;31189;38.790;-77.084;2024-02-23T09:31:27;22;16;
45440;PMS5003;31189;38.790;-77.084;2024-02-23T09:33:53;19;14;
45440;PMS5003;31189;38.790;-77.084;2024-02-23T09:36:18;22;16;
45440;PMS5003;31189;38.790;-77.084;2024-02-23T09:38:44;18;15;
45440;PMS5003;31189;38.790;-77.084;2024-02-23T09:41:09;23;17;
45440;PMS5003;31189;38.790;-77.084;2024-02-23T09:43:34;21;17;
45440;PMS5003;31189;38.790;-77.084;2024-02-23T09:45:59;16;14;
45440;PMS5003;31189;38.790;-77.084;2024-02-23T09:48:25;18;17;
45440;PMS5003;31189;38.790;-77.084;2024-02-23T09:50:52;22;18;
45440;PMS5003;31189;38.790;-77.084;2024-02-23T09:53:16;22;16;
45440;PMS5003;31189;38.790;-77.084;2024-02-23T09:55:42;32;18;
45440;PMS5003;31189;38.790;-77.084;2024-02-23T09:58:07;19;14;
45440;PMS5003;31189;38.790;-77.084;2024-02-23T10:00:32;27;14;
45440;PMS5003;31189;38.790;-77.084;2024-02-23T10:02:57;28;17;
45440;PMS5003;31189;38.790;-77.084;2024-02-23T10:05:23;16;14;
45440;PMS5003;31189;38.790;-77.084;2024-02-23T10:07:47;18;16;
45440;PMS5003;31189;38.790;-77.084;2024-02-23T10:10:13;17;15;
45440;PMS5003;31189;38.790;-77.084;2024-02-23T10:12:39;22;16;
45440;PMS5003;31189;38.790;-77.084;2024-02-23T10:15:05;15;15;
45440;PMS5003;31189;38.790;-77.084;2024-02-23T10:17:30;21;16;
45440;PMS5003;31189;38.790;-77.084;2024-02-23T10:19:56;16;15;
45440;PMS5003;31189;38.790;-77.084;2024-02-23T10:22:21;21;16;
45440;PMS5003;31189;38.790;-77.084;2024-02-23T10:24:46;14;13;
45440;PMS5003;31189;38.790;-77.084;2024-02-23T10:27:12;20;16;
45440;PMS5003;31189;38.790;-77.084;2024-02-23T10:29:37;24;14;
45440;PMS5003;31189;38.790;-77.084;2024-02-23T10:32:03;15;13;
45440;PMS5003;31189;38.790;-77.084;2024-02-23T10:34:28;18;15;
45440;PMS5003;31189;38.790;-77.084;2024-02-23T10:36:54;20;14;
45440;PMS5003;31189;38.790;-77.084;2024-02-23T10:39:20;15;14;
45440;PMS5003;31189;38.790;-77.084;2024-02-23T10:41:47;16;13;
45440;PMS5003;31189;38.790;-77.084;2024-02-23T10:44:11;18;14;
45440;PMS5003;31189;38.790;-77.084;2024-02-23T10:46:36;21;14;
45440;PMS5003;31189;38.790;-77.084;2024-02-23T10:49:02;23;16;
45440;PMS5003;31189;38.790;-77.084;2024-02-23T10:51:27;26;17;
45440;PMS5003;31189;38.790;-77.084;2024-02-23T10:53:52;21;14;
45440;PMS5003;31189;38.790;-77.084;2024-02-23T10:56:18;18;14;
45440;PMS5003;31189;38.790;-77.084;2024-02-23T10:58:43;21;15;
45440;PMS5003;31189;38.790;-77.084;2024-02-23T11:01:09;25;16;
45440;PMS5003;31189;38.790;-77.084;2024-02-23T11:03:35;21;16;
45440;PMS5003;31189;38.790;-77.084;2024-02-23T11:05:59;16;15;
45440;PMS5003;31189;38.790;-77.084;2024-02-23T11:08:27;17;13;
45440;PMS5003;31189;38.790;-77.084;2024-02-23T11:10:51;17;15;
45440;PMS5003;31189;38.790;-77.084;2024-02-23T11:13:16;20;17;
45440;PMS5003;31189;38.790;-77.084;2024-02-23T11:15:41;25;19;
45440;PMS5003;31189;38.790;-77.084;2024-02-23T11:20:36;24;16;
45440;PMS5003;31189;38.790;-77.084;2024-02-23T11:22:58;26;18;
45440;PMS5003;31189;38.790;-77.084;2024-02-23T11:25:26;24;20;
45440;PMS5003;31189;38.790;-77.084;2024-02-23T11:27:49;36;23;
45440;PMS5003;31189;38.790;-77.084;2024-02-23T11:30:14;33;21;
45440;PMS5003;31189;38.790;-77.084;2024-02-23T11:32:40;36;29;
45440;PMS5003;31189;38.790;-77.084;2024-02-23T11:35:05;30;23;
45440;PMS5003;31189;38.790;-77.084;2024-02-23T11:37:30;32;21;
45440;PMS5003;31189;38.790;-77.084;2024-02-23T11:39:55;31;22;
45440;PMS5003;31189;38.790;-77.084;2024-02-23T11:42:21;30;23;
45440;PMS5003;31189;38.790;-77.084;2024-02-23T11:44:46;42;27;
45440;PMS5003;31189;38.790;-77.084;2024-02-23T11:47:12;25;20;
45440;PMS5003;31189;38.790;-77.084;2024-02-23T11:49:37;26;19;
45440;PMS5003;31189;38.790;-77.084;2024-02-23T11:52:03;26;20;
45440;PMS5003;31189;38.790;-77.084;2024-02-23T11:54:28;27;20;
45440;PMS5003;31189;38.790;-77.084;2024-02-23T11:56:53;35;26;
45440;PMS5003;31189;38.790;-77.084;2024-02-23T11:59:19;33;22;
45440;PMS5003;31189;38.790;-77.084;2024-02-23T12:01:45;33;24;
45440;PMS5003;31189;38.790;-77.084;2024-02-23T12:04:10;37;24;
45440;PMS5003;31189;38.790;-77.084;2024-02-23T12:06:36;32;23;
45440;PMS5003;31189;38.790;-77.084;2024-02-23T12:09:01;37;23;
45440;PMS5003;31189;38.790;-77.084;2024-02-23T12:11:26;23;21;
45440;PMS5003;31189;38.790;-77.084;2024-02-23T12:13:52;30;23;
45440;PMS5003;31189;38.790;-77.084;2024-02-23T12:16:17;30;23;
45440;PMS5003;31189;38.790;-77.084;2024-02-23T12:18:42;26;22;
45440;PMS5003;31189;38.790;-77.084;2024-02-23T12:21:08;36;26;
45440;PMS5003;31189;38.790;-77.084;2024-02-23T12:23:39;26;23;
45440;PMS5003;31189;38.790;-77.084;2024-02-23T12:25:59;40;21;
45440;PMS5003;31189;38.790;-77.084;2024-02-23T12:28:24;32;21;
45440;PMS5003;31189;38.790;-77.084;2024-02-23T12:33:15;29;19;
45440;PMS5003;31189;38.790;-77.084;2024-02-23T12:35:40;36;24;
45440;PMS5003;31189;38.790;-77.084;2024-02-23T12:38:06;26;24;
45440;PMS5003;31189;38.790;-77.084;2024-02-23T12:40:31;30;23;
45440;PMS5003;31189;38.790;-77.084;2024-02-23T12:42:57;29;23;
45440;PMS5003;31189;38.790;-77.084;2024-02-23T12:45:22;24;22;
45440;PMS5003;31189;38.790;-77.084;2024-02-23T12:47:47;29;23;
45440;PMS5003;31189;38.790;-77.084;2024-02-23T12:50:13;23;21;
45440;PMS5003;31189;38.790;-77.084;2024-02-23T12:52:38;29;23;
45440;PMS5003;31189;38.790;-77.084;2024-02-23T12:55:04;31;20;
45440;PMS5003;31189;38.790;-77.084;2024-02-23T12:57:29;24;21;
45440;PMS5003;31189;38.790;-77.084;2024-02-23T12:59:54;30;23;
45440;PMS5003;31189;38.790;-77.084;2024-02-23T13:02:19;39;22;
45440;PMS5003;31189;38.790;-77.084;2024-02-23T13:04:44;39;27;
45440;PMS5003;31189;38.790;-77.084;2024-02-23T13:07:10;23;21;
45440;PMS5003;31189;38.790;-77.084;2024-02-23T13:09:35;40;27;
45440;PMS5003;31189;38.790;-77.084;2024-02-23T13:12:01;41;26;
45440;PMS5003;31189;38.790;-77.084;2024-02-23T13:14:27;25;24;
45440;PMS5003;31189;38.790;-77.084;2024-02-23T13:16:52;30;23;
45440;PMS5003;31189;38.790;-77.084;2024-02-23T13:19:17;45;26;
45440;PMS5003;31189;38.790;-77.084;2024-02-23T13:21:43;33;26;
45440;PMS5003;31189;38.790;-77.084;2024-02-23T13:24:08;34;27;
45440;PMS5003;31189;38.790;-77.084;2024-02-23T13:26:33;32;25;
45440;PMS5003;31189;38.790;-77.084;2024-02-23T13:28:59;35;27;
45440;PMS5003;31189;38.790;-77.084;2024-02-23T13:31:24;29;24;
45440;PMS5003;31189;38.790;-77.084;2024-02-23T13:33:50;27;27;
45440;PMS5003;31189;38.790;-77.084;2024-02-23T13:36:15;34;23;
45440;PMS5003;31189;38.790;-77.084;2024-02-23T13:38:41;32;24;
45440;PMS5003;31189;38.790;-77.084;2024-02-23T13:41:06;27;27;
45440;PMS5003;31189;38.790;-77.084;2024-02-23T13:43:31;31;28;
45440;PMS5003;31189;38.790;-77.084;2024-02-23T13:45:57;31;27;
45440;PMS5003;31189;38.790;-77.084;2024-02-23T13:48:22;31;25;
45440;PMS5003;31189;38.790;-77.084;2024-02-23T13:50:48;37;27;
45440;PMS5003;31189;38.790;-77.084;2024-02-23T13:53:13;33;30;
45440;PMS5003;31189;38.790;-77.084;2024-02-23T13:55:39;36;27;
45440;PMS5003;31189;38.790;-77.084;2024-02-23T13:58:04;26;25;
45440;PMS5003;31189;38.790;-77.084;2024-02-23T14:00:29;36;28;
45440;PMS5003;31189;38.790;-77.084;2024-02-23T14:02:54;30;28;
45440;PMS5003;31189;38.790;-77.084;2024-02-23T14:05:20;32;29;
45440;PMS5003;31189;38.790;-77.084;2024-02-23T14:07:46;30;28;
45440;PMS5003;31189;38.790;-77.084;2024-02-23T14:10:12;37;30;
45440;PMS5003;31189;38.790;-77.084;2024-02-23T14:12:36;33;30;
45440;PMS5003;31189;38.790;-77.084;2024-02-23T14:15:02;33;29;
45440;PMS5003;31189;38.790;-77.084;2024-02-23T14:17:27;33;29;
45440;PMS5003;31189;38.790;-77.084;2024-02-23T14:19:52;40;31;
45440;PMS5003;31189;38.790;-77.084;2024-02-23T14:22:18;42;31;
45440;PMS5003;31189;38.790;-77.084;2024-02-23T14:24:43;33;28;
45440;PMS5003;31189;38.790;-77.084;2024-02-23T14:27:08;42;30;
45440;PMS5003;31189;38.790;-77.084;2024-02-23T14:29:34;47;30;
45440;PMS5003;31189;38.790;-77.084;2024-02-23T14:31:59;36;31;
45440;PMS5003;31189;38.790;-77.084;2024-02-23T14:34:24;31;31;
45440;PMS5003;31189;38.790;-77.084;2024-02-23T14:36:49;41;29;
45440;PMS5003;31189;38.790;-77.084;2024-02-23T14:39:15;45;29;
45440;PMS5003;31189;38.790;-77.084;2024-02-23T14:41:40;35;31;
45440;PMS5003;31189;38.790;-77.084;2024-02-23T14:44:05;34;33;
45440;PMS5003;31189;38.790;-77.084;2024-02-23T14:46:31;34;32;
45440;PMS5003;31189;38.790;-77.084;2024-02-23T14:48:56;36;33;
45440;PMS5003;31189;38.790;-77.084;2024-02-23T14:51:21;46;31;
45440;PMS5003;31189;38.790;-77.084;2024-02-23T14:53:47;49;36;
45440;PMS5003;31189;38.790;-77.084;2024-02-23T14:56:12;50;33;
45440;PMS5003;31189;38.790;-77.084;2024-02-23T14:58:37;42;31;
45440;PMS5003;31189;38.790;-77.084;2024-02-23T15:01:02;43;35;
45440;PMS5003;31189;38.790;-77.084;2024-02-23T15:03:28;46;32;
45440;PMS5003;31189;38.790;-77.084;2024-02-23T15:05:54;40;31;
45440;PMS5003;31189;38.790;-77.084;2024-02-23T15:08:19;41;31;
45440;PMS5003;31189;38.790;-77.084;2024-02-23T15:10:44;46;31;
45440;PMS5003;31189;38.790;-77.084;2024-02-23T15:13:10;41;29;
45440;PMS5003;31189;38.790;-77.084;2024-02-23T15:15:35;42;32;
45440;PMS5003;31189;38.790;-77.084;2024-02-23T15:18:01;49;36;
45440;PMS5003;31189;38.790;-77.084;2024-02-23T15:20:26;49;30;
45440;PMS5003;31189;38.790;-77.084;2024-02-23T15:22:52;45;32;
45440;PMS5003;31189;38.790;-77.084;2024-02-23T15:25:17;43;33;
45440;PMS5003;31189;38.790;-77.084;2024-02-23T15:27:43;37;29;
45440;PMS5003;31189;38.790;-77.084;2024-02-23T15:30:09;29;28;
45440;PMS5003;31189;38.790;-77.084;2024-02-23T15:32:34;52;37;
45440;PMS5003;31189;38.790;-77.084;2024-02-23T15:34:59;40;35;
45440;PMS5003;31189;38.790;-77.084;2024-02-23T15:37:25;47;32;
45440;PMS5003;31189;38.790;-77.084;2024-02-23T15:39:50;36;34;
45440;PMS5003;31189;38.790;-77.084;2024-02-23T15:42:15;46;34;
45440;PMS5003;31189;38.790;-77.084;2024-02-23T15:44:41;39;33;